Date,TemperatureHighF,TemperatureAvgF,TemperatureLowF,DewpointHighF,DewpointAvgF,DewpointLowF,HumidityHigh,HumidityAvg,HumidityLow,PressureMaxIn,PressureMinIn,WindSpeedMaxMPH,WindSpeedAvgMPH,GustSpeedMaxMPH,PrecipitationSumIn
2013-1-1,60,52,44,60,52,44,100,100,94,29.68,29.44,6,1,6,0.08
2013-1-2,67,54,45,61,52,45,100,92,58,29.68,29.44,5,0,6,0.12
2013-1-3,48,42,29,48,42,29,100,100,94,29.77,29.62,6,1,6,0.00
2013-1-4,57,40,28,46,35,26,100,83,58,29.85,29.74,9,1,9,0.00
2013-1-5,55,39,23,44,34,23,100,83,46,29.85,29.77,5,0,5,0.00
2013-1-6,53,45,39,50,45,39,100,98,85,29.80,29.62,10,1,10,0.00
2013-1-7,59,39,27,46,35,27,100,88,55,29.88,29.68,5,0,8,0.00
2013-1-8,60,44,27,51,42,27,100,94,64,29.88,29.80,5,1,6,0.00
2013-1-9,68,54,38,63,52,38,100,94,71,29.94,29.85,4,0,4,0.00
2013-1-10,76,60,47,65,56,47,100,87,51,29.97,29.85,6,1,8,0.00
2013-1-11,73,65,60,72,65,60,100,99,85,29.85,29.74,10,3,12,0.00
2013-1-12,78,64,55,70,60,55,100,88,51,29.74,29.68,11,2,12,0.00
2013-1-13,76,64,53,69,62,53,100,94,67,29.71,29.62,9,2,11,0.00
2013-1-14,76,67,62,72,65,62,100,94,64,29.74,29.62,15,5,15,0.00
2013-1-15,75,66,58,68,63,58,100,90,58,29.68,29.59,12,4,12,0.00
2013-1-16,68,63,59,68,63,59,100,100,100,29.59,29.50,8,3,8,0.00
2013-1-17,65,54,39,65,54,39,100,100,100,29.68,29.29,13,2,19,0.00
2013-1-18,59,42,28,47,36,28,100,84,44,30.00,29.68,5,0,7,0.00
2013-1-19,63,40,22,46,35,22,100,85,51,29.97,29.71,6,1,8,0.00
2013-1-20,66,47,30,47,40,30,100,81,46,29.71,29.62,9,1,10,0.00
2013-1-21,65,46,30,49,36,28,100,71,39,29.62,29.53,10,2,15,0.00
2013-1-22,53,40,30,30,24,18,69,54,41,29.77,29.59,10,3,10,0.00
2013-1-23,56,40,25,44,29,18,100,68,46,29.83,29.65,11,2,12,0.00
2013-1-24,64,51,36,50,40,21,100,69,39,29.88,29.59,12,3,13,0.00
2013-1-25,39,34,29,34,23,14,83,63,53,29.91,29.62,8,1,8,0.00
2013-1-26,65,46,31,44,37,28,100,76,41,29.80,29.59,6,1,6,0.00
2013-1-27,57,41,28,41,34,28,100,80,51,29.97,29.77,5,0,5,0.00
2013-1-28,61,46,39,54,44,36,100,90,71,29.94,29.80,5,0,5,0.00
2013-1-29,75,57,37,68,55,37,100,93,69,29.80,29.59,10,2,10,0.00
2013-1-30,73,65,48,71,64,48,100,98,80,29.62,29.12,22,8,22,0.00
2013-1-31,54,43,33,48,34,27,100,74,46,29.65,29.23,15,4,15,0.00
2013-2-1,52,41,23,35,27,12,90,59,41,29.83,29.56,11,4,11,0.00
2013-2-2,57,36,17,44,27,15,100,72,39,29.83,29.62,12,2,13,0.00
2013-2-3,61,44,34,45,36,28,100,75,44,29.59,29.47,15,1,22,0.00
2013-2-4,50,38,26,40,34,26,100,87,60,29.62,29.53,5,0,8,0.00
2013-2-5,64,46,29,54,43,29,100,90,62,29.56,29.41,9,1,9,0.00
2013-2-6,74,52,36,57,43,34,100,77,37,29.71,29.53,9,1,9,0.00
2013-2-7,45,42,35,45,42,35,100,100,100,29.65,29.38,10,1,10,0.00
2013-2-8,59,48,40,56,47,40,100,97,83,29.62,29.38,8,1,10,0.00
2013-2-9,66,42,27,48,36,27,100,83,39,29.80,29.59,6,0,6,0.00
2013-2-10,65,50,31,58,44,31,100,84,55,29.85,29.62,11,2,13,0.00
2013-2-11,66,59,52,66,59,52,100,100,100,29.74,29.59,13,4,13,0.00
2013-2-12,62,53,47,56,50,45,100,92,58,29.62,29.41,6,0,6,0.00
2013-2-13,54,48,42,54,48,42,100,100,100,29.41,29.26,10,1,11,0.00
2013-2-14,54,41,29,45,38,29,100,91,62,29.56,29.41,6,0,6,0.00
2013-2-15,66,44,28,49,38,28,100,82,39,29.59,29.47,9,1,9,0.00
2013-2-16,50,40,26,43,32,14,100,78,44,29.56,29.38,17,2,19,0.00
2013-2-17,50,34,24,28,22,17,99,63,44,29.77,29.56,10,2,12,0.00
2013-2-18,58,39,20,36,28,20,100,71,39,29.85,29.71,9,2,9,0.00
2013-2-19,60,45,38,57,40,26,100,84,48,29.71,29.50,10,1,10,0.00
2013-2-20,62,45,26,35,28,22,94,54,37,29.65,29.56,8,1,8,0.00
2013-2-21,68,48,27,42,34,0,100,62,2,29.68,29.56,6,0,6,0.00
2013-2-22,52,42,39,48,40,39,100,95,62,29.68,29.56,5,1,9,5.83
2013-2-23,45,42,38,45,42,38,100,100,100,29.59,29.35,6,0,6,0.98
2013-2-24,71,52,37,55,44,37,100,81,37,29.53,29.38,8,1,8,0.00
2013-2-25,47,43,37,44,40,36,100,91,67,29.56,29.38,8,1,8,0.00
2013-2-26,49,42,37,49,42,37,100,100,100,29.41,29.06,7,1,8,0.00
2013-2-27,61,48,35,46,41,35,100,80,55,29.38,29.26,12,3,15,0.00
2013-2-28,56,44,35,42,37,29,100,77,51,29.44,29.29,12,3,14,0.00
2013-3-1,54,41,26,39,33,26,100,77,53,29.47,29.38,10,2,11,0.00
2013-3-2,46,38,33,42,34,27,100,87,62,29.50,29.38,10,3,14,0.00
2013-3-3,49,37,27,32,27,20,100,69,44,29.59,29.47,11,2,17,0.00
2013-3-4,63,42,22,39,30,20,100,67,39,29.74,29.59,8,1,8,0.00
2013-3-5,69,52,34,62,48,33,100,86,58,29.65,29.23,16,6,16,0.00
2013-3-6,49,40,29,36,31,24,100,71,55,29.59,29.32,20,4,20,0.00
2013-3-7,62,41,22,42,34,22,100,80,41,29.71,29.59,8,1,8,0.00
2013-3-8,66,45,29,41,35,29,100,74,39,29.80,29.68,6,1,6,0.00
2013-3-9,68,47,28,43,37,28,100,72,39,29.83,29.71,6,1,6,0.00
2013-3-10,70,54,38,57,46,38,100,78,44,29.74,29.65,10,2,10,0.00
2013-3-11,68,57,48,68,54,48,100,91,60,29.68,29.38,13,3,13,0.00
2013-3-12,68,56,43,58,47,35,100,76,39,29.56,29.29,10,3,10,0.00
2013-3-13,62,49,32,42,35,24,100,62,39,29.68,29.56,14,3,14,0.00
2013-3-14,59,41,24,37,29,23,100,63,39,29.80,29.65,8,1,10,0.00
2013-3-15,73,52,30,45,37,24,100,60,37,29.71,29.56,14,3,14,0.00
2013-3-16,58,57,54,48,45,43,80,64,58,29.56,29.50,10,5,10,0.00
2013-3-20,61,54,39,39,33,25,69,45,37,29.62,29.38,11,3,12,0.00
2013-3-21,54,43,28,34,28,18,100,60,41,29.44,29.35,13,2,13,0.00
2013-3-22,51,41,30,44,33,20,100,75,51,29.56,29.41,5,1,5,0.00
2013-3-23,57,47,42,57,47,42,100,100,100,29.53,29.38,6,0,6,0.00
2013-3-24,49,47,46,49,47,46,100,100,100,29.38,29.09,8,1,8,0.00
2013-3-25,50,43,35,46,32,24,100,68,48,29.50,29.15,15,5,16,0.00
2013-3-26,48,38,29,35,30,26,100,75,55,29.71,29.44,12,3,13,0.00
2013-3-27,58,41,26,37,32,26,100,73,44,29.77,29.68,10,1,12,0.00
2013-3-28,65,45,24,42,33,24,100,69,37,29.80,29.71,9,1,9,0.00
2013-3-29,70,49,27,44,37,27,100,68,39,29.83,29.74,6,1,9,0.00
2013-3-30,75,60,43,60,48,39,100,67,41,29.77,29.62,13,2,13,0.00
2013-3-31,73,62,55,68,59,54,100,91,51,29.62,29.47,13,3,13,0.00
2013-4-1,77,64,50,67,53,38,100,75,34,29.56,29.41,11,1,11,0.00
2013-4-2,73,57,41,51,45,41,100,71,37,29.68,29.56,10,1,13,0.00
2013-4-3,64,54,41,51,42,38,100,69,41,29.74,29.62,7,1,8,0.00
2013-4-4,50,43,39,50,43,39,100,100,87,29.71,29.44,10,1,10,0.00
2013-4-5,63,50,38,51,45,38,100,86,55,29.56,29.47,4,0,5,0.00
2013-4-6,74,54,33,57,42,33,100,70,37,29.74,29.56,6,1,7,0.00
2013-4-7,76,58,38,59,50,38,100,78,46,29.77,29.68,10,2,10,0.00
2013-4-8,79,65,54,64,56,51,100,78,39,29.74,29.65,10,3,10,0.00
2013-4-9,83,68,54,68,59,54,100,79,41,29.80,29.65,9,2,10,0.00
2013-4-10,85,70,59,67,60,56,100,76,41,29.74,29.59,10,3,10,0.00
2013-4-11,80,72,62,76,69,62,100,93,60,29.53,29.32,8,4,11,0.00
2013-4-12,76,66,48,71,60,40,100,84,34,29.47,29.26,15,4,18,0.00
2013-4-13,80,61,46,54,49,43,100,69,32,29.59,29.44,6,1,11,0.00
2013-4-14,65,54,43,64,53,43,100,97,69,29.65,29.44,6,1,8,0.00
2013-4-15,74,63,56,69,61,56,100,93,64,29.74,29.47,6,0,6,0.00
2013-4-16,82,67,55,71,61,55,100,85,48,29.83,29.71,8,1,8,0.00
2013-4-17,85,70,55,71,61,55,100,78,44,29.80,29.71,6,1,6,0.00
2013-4-18,80,70,54,73,64,54,100,83,51,29.71,29.56,10,3,12,0.00
2013-4-19,76,64,48,74,64,48,100,97,76,29.56,29.41,17,5,22,0.00
2013-4-20,68,54,38,48,44,38,100,75,39,29.77,29.50,7,1,10,0.00
2013-4-21,71,54,34,57,44,34,100,74,44,29.85,29.74,8,1,10,0.00
2013-4-22,71,56,46,51,47,43,100,76,44,29.83,29.74,8,2,8,0.00
2013-4-23,75,57,39,58,49,39,100,78,46,29.77,29.68,9,1,9,0.00
2013-4-24,77,63,49,67,57,49,100,84,48,29.71,29.65,11,3,13,0.00
2013-4-25,78,66,49,64,55,42,100,74,34,29.83,29.65,8,2,9,0.00
2013-4-26,78,60,37,57,48,37,100,72,41,29.91,29.77,9,2,9,0.00
2013-4-27,74,61,53,65,57,53,100,90,51,29.88,29.74,6,1,9,0.00
2013-4-28,74,60,54,73,60,54,100,100,94,29.74,29.56,8,1,8,0.00
2013-4-29,60,58,58,60,58,58,100,100,100,29.62,29.53,0,0,0,0.00
2013-4-30,81,69,60,69,62,56,100,83,46,29.71,29.62,6,0,6,0.00
2013-5-1,71,62,57,65,60,57,100,94,74,29.80,29.65,8,1,8,0.00
2013-5-2,68,62,58,68,62,58,100,100,100,29.77,29.68,8,1,8,0.00
2013-5-3,66,61,58,66,61,58,100,100,100,29.71,29.56,8,2,10,0.00
2013-5-4,59,55,51,59,55,51,100,100,92,29.56,29.38,6,1,10,0.00
2013-5-5,70,60,57,66,58,51,100,95,53,29.41,29.29,8,1,8,0.00
2013-5-6,62,54,45,57,51,45,100,92,60,29.47,29.35,10,2,10,0.00
2013-5-7,68,57,50,62,54,50,100,89,55,29.56,29.38,8,2,8,0.00
2013-5-8,77,63,47,65,55,47,100,80,46,29.65,29.47,15,2,15,0.00
2013-5-9,85,69,56,69,60,56,100,77,41,29.71,29.59,8,1,8,0.00
2013-5-10,82,68,54,73,61,54,100,82,46,29.68,29.56,12,2,13,0.00
2013-5-11,78,69,58,72,66,58,100,91,62,29.59,29.47,8,2,9,0.00
2013-5-12,76,66,48,67,53,35,100,68,34,29.62,29.47,10,2,11,0.00
2013-5-13,72,58,39,49,43,37,100,64,37,29.74,29.62,12,2,12,0.00
2013-5-14,77,58,37,60,47,37,100,74,37,29.83,29.68,7,1,9,0.00
2013-5-15,87,71,57,67,59,55,100,71,41,29.74,29.62,10,3,12,0.00
2013-5-16,82,70,59,71,64,57,100,82,44,29.68,29.59,9,2,9,0.00
2013-5-17,85,68,54,70,61,54,100,82,46,29.74,29.59,9,1,10,0.00
2013-5-18,77,69,63,73,67,58,100,95,53,29.71,29.62,8,2,12,0.00
2013-5-19,75,68,63,75,68,63,100,100,100,29.71,29.62,6,1,6,0.00
2013-5-20,85,72,61,79,69,61,100,91,60,29.71,29.62,6,1,6,0.00
2013-5-21,88,74,64,81,69,61,100,87,46,29.65,29.56,10,1,10,0.00
2013-5-22,84,71,59,77,68,59,100,92,69,29.62,29.47,8,2,9,0.00
2013-5-23,71,68,65,71,68,65,100,100,100,29.56,29.53,8,2,8,0.00
2013-5-24,81,73,54,57,53,45,100,54,32,29.77,29.62,8,2,13,0.00
2013-5-25,79,61,42,58,50,42,100,72,39,29.88,29.77,9,1,9,0.00
2013-5-26,85,68,48,64,57,48,100,73,37,29.83,29.71,6,1,6,0.00
2013-5-27,86,69,52,70,59,52,100,76,41,29.80,29.71,7,1,8,0.00
2013-5-28,87,74,60,72,64,59,100,75,41,29.83,29.71,9,3,9,0.00
2013-5-29,87,72,56,74,63,56,100,79,41,29.83,29.71,8,2,8,0.00
2013-5-30,90,74,59,78,66,59,100,79,41,29.83,29.71,8,1,8,0.00
2013-5-31,88,75,61,76,68,61,100,82,44,29.80,29.68,8,2,8,0.00
2013-6-1,87,75,63,76,68,62,100,83,44,29.74,29.62,10,3,10,0.00
2013-6-2,83,74,67,82,73,67,100,99,85,29.68,29.47,9,3,9,0.00
2013-6-3,84,72,66,82,71,66,100,97,69,29.59,29.47,8,1,8,0.00
2013-6-4,91,78,65,82,71,65,100,82,44,29.65,29.53,5,1,6,0.00
2013-6-5,86,73,66,81,72,66,100,98,69,29.65,29.50,7,1,7,0.00
2013-6-6,75,70,68,75,70,68,100,100,100,29.59,29.35,6,1,6,0.00
2013-6-7,84,70,67,80,70,67,100,98,71,29.35,29.26,10,2,11,0.00
2013-6-8,84,77,68,78,72,68,100,85,67,29.71,29.62,8,2,8,0.00
2013-6-9,87,73,65,81,71,65,100,96,67,29.74,29.62,10,1,17,0.00
2013-6-10,80,72,68,80,72,68,100,100,100,29.68,29.56,13,3,13,0.00
2013-6-11,91,79,69,84,75,69,100,89,51,29.68,29.56,12,3,12,0.00
2013-6-12,96,82,69,86,75,68,100,83,41,29.68,29.56,6,1,6,0.00
2013-6-13,92,82,72,82,73,0,100,78,7,29.62,29.38,14,3,16,0.00
2013-6-14,88,77,65,76,65,59,100,73,41,29.65,29.44,8,1,8,0.00
2013-6-15,91,73,58,74,63,56,100,76,34,29.74,29.62,7,0,7,0.00
2013-6-16,87,74,63,78,68,62,100,85,44,29.74,29.62,8,2,8,0.00
2013-6-17,86,75,68,82,74,68,100,95,69,29.71,29.53,13,3,13,0.00
2013-6-18,83,74,71,82,74,71,100,100,90,29.59,29.44,10,6,13,0.00
2013-6-19,84,74,66,83,74,66,100,99,80,29.68,29.50,5,1,5,0.00
2013-6-20,86,74,64,79,68,64,100,85,48,29.80,29.68,8,1,8,0.00
2013-6-21,87,73,60,78,66,60,100,81,46,29.83,29.74,6,1,6,0.00
2013-6-22,89,74,59,77,67,59,100,81,46,29.80,29.71,6,1,6,0.00
2013-6-23,87,73,64,82,72,64,100,96,67,29.80,29.71,5,0,6,0.00
2013-6-24,90,77,66,82,73,66,100,90,55,29.83,29.71,8,2,8,0.00
2013-6-25,91,77,66,81,72,66,100,88,53,29.77,29.65,8,2,11,0.00
2013-6-26,90,78,69,84,76,69,100,94,55,29.71,29.53,8,3,10,0.00
2013-6-27,89,79,72,82,76,72,100,91,67,29.62,29.41,10,4,14,0.00
2013-6-28,93,80,70,84,75,69,100,87,48,29.47,29.29,12,4,14,0.00
2013-6-29,86,75,69,81,73,69,100,96,64,29.35,29.26,9,3,10,0.00
2013-6-30,85,73,69,81,72,69,100,98,71,29.41,29.32,6,2,7,0.00
2013-7-1,81,72,69,80,72,69,100,98,80,29.47,29.41,6,1,6,0.00
2013-7-2,86,76,70,80,75,70,100,95,69,29.74,29.62,8,2,8,0.00
2013-7-3,85,73,69,82,72,69,100,99,74,29.77,29.71,9,1,9,0.00
2013-7-4,86,72,68,83,72,68,100,100,83,29.80,29.71,11,2,12,0.00
2013-7-5,88,74,68,83,74,68,100,99,71,29.83,29.74,6,1,10,0.00
2013-7-6,86,76,70,84,75,70,100,98,69,29.80,29.68,8,2,8,0.00
2013-7-7,87,77,72,83,76,72,100,96,67,29.80,29.68,6,2,6,0.00
2013-7-8,89,76,70,83,74,70,100,95,62,29.83,29.71,6,1,6,0.00
2013-7-9,89,78,70,84,75,70,100,92,67,29.80,29.68,8,2,8,0.00
2013-7-10,84,74,71,84,74,71,100,100,100,29.71,29.59,10,1,17,0.00
2013-7-21,88,80,72,84,77,72,100,93,67,29.65,29.53,9,3,9,0.00
2013-7-22,86,75,69,82,74,69,100,98,74,29.65,29.50,11,3,11,0.00
2013-7-23,87,76,71,79,73,71,100,92,67,29.56,29.50,10,4,13,0.00
2013-7-25,93,84,71,82,75,68,100,77,46,29.62,29.53,5,0,6,0.00
2013-7-26,89,75,68,84,74,68,100,97,67,29.68,29.56,9,1,11,0.00
2013-7-27,86,76,69,84,75,69,100,97,67,29.62,29.56,8,2,8,0.00
2013-7-28,88,77,66,83,73,66,100,90,60,29.68,29.53,6,1,8,0.00
2013-7-29,90,78,68,84,74,68,100,90,64,29.80,29.62,6,1,6,0.00
2013-7-30,93,77,62,83,68,62,100,81,39,29.83,29.74,6,0,6,0.00
2013-7-31,77,72,69,77,72,69,100,100,100,29.80,29.59,6,1,6,0.00
2013-8-1,88,77,70,85,76,70,100,97,69,29.62,29.53,8,2,8,0.00
2013-8-2,91,79,72,86,76,72,100,94,62,29.68,29.50,5,1,5,0.00
2013-8-3,90,78,69,86,75,69,100,91,60,29.68,29.59,6,1,6,0.00
2013-8-4,92,80,72,86,76,70,100,90,48,29.65,29.56,8,1,8,0.00
2013-8-5,89,78,70,86,77,70,100,98,71,29.65,29.56,5,1,6,0.00
2013-8-6,82,74,70,82,74,70,100,100,100,29.62,29.53,6,2,6,0.00
2013-8-12,94,81,73,85,78,72,100,94,48,29.68,29.59,6,1,8,0.00
2013-8-13,90,79,71,83,75,70,100,89,53,29.62,29.50,10,2,10,0.00
2013-8-14,79,73,69,79,73,69,100,100,100,29.59,29.44,4,0,5,0.00
2013-8-15,71,67,64,71,67,64,100,100,100,29.62,29.53,6,0,6,0.00
2013-8-16,67,64,62,67,64,62,100,100,100,29.59,29.53,5,1,5,0.00
2013-8-17,68,65,62,68,65,62,100,100,100,29.65,29.53,4,0,4,0.00
2013-8-18,85,72,66,85,72,66,100,100,100,29.74,29.62,5,0,5,0.00
2013-8-19,81,72,68,81,72,68,100,100,100,29.74,29.65,4,0,4,0.00
2013-8-20,86,75,70,84,75,70,100,100,92,29.77,29.65,4,0,4,0.00
2013-8-21,88,76,70,84,75,70,100,97,67,29.83,29.68,6,1,6,0.00
2013-8-22,92,79,66,86,74,66,100,86,51,29.77,29.68,7,1,7,0.00
2013-8-23,92,78,68,86,74,68,100,91,48,29.71,29.59,6,1,9,0.00
2013-8-24,81,72,65,78,71,65,100,97,76,29.80,29.62,6,1,8,0.00
2013-8-25,86,70,58,78,64,58,100,86,41,29.88,29.77,6,1,7,0.00
2013-8-26,84,69,54,74,61,54,100,80,41,29.85,29.71,5,1,5,0.00
2013-8-27,90,73,57,80,65,57,100,81,41,29.71,29.59,4,1,8,0.00
2013-8-28,89,75,62,82,69,62,100,85,44,29.65,29.50,6,1,7,0.00
2013-8-29,95,80,67,86,74,67,100,86,41,29.59,29.50,6,1,6,0.00
2013-8-30,88,77,70,85,76,70,100,97,71,29.59,29.50,5,0,5,0.00
2013-8-31,89,76,67,85,74,67,100,95,67,29.56,29.50,6,1,8,0.00
2013-9-1,90,82,-1,86,77,0,100,86,64,29.53,29.47,8,3,10,0.00
2013-9-2,90,78,69,82,74,67,100,89,48,29.53,29.41,10,2,10,0.00
2013-9-3,90,77,70,83,74,70,100,92,53,29.56,29.41,8,2,10,0.00
2013-9-4,92,77,66,82,71,65,100,86,41,29.71,29.50,6,1,6,0.00
2013-9-5,94,78,65,82,70,62,100,83,39,29.71,29.59,5,0,6,0.00
2013-9-6,90,75,64,78,69,64,100,85,44,29.71,29.59,4,1,5,0.00
2013-9-7,90,74,59,80,66,59,100,81,41,29.65,29.56,6,1,6,0.00
2013-9-8,93,75,61,79,67,61,100,83,39,29.59,29.47,6,1,6,0.00
2013-9-9,71,70,70,71,70,70,100,100,100,29.59,29.56,0,0,0,0.00
2013-10-1,85,65,50,74,58,50,100,81,37,0.00,40.00,5,0,8,0.00
2013-10-2,86,68,52,74,61,52,100,83,37,0.00,40.00,5,0,6,0.00
2013-10-3,86,69,55,74,61,55,100,81,37,0.00,40.00,8,1,8,0.00
2013-10-4,89,70,55,74,61,55,100,80,34,0.00,40.00,5,0,6,0.00
2013-10-5,91,72,56,79,63,56,100,80,32,0.00,40.00,4,0,6,0.00
2013-10-6,86,71,58,80,65,58,100,85,44,0.00,40.00,9,1,10,0.00
2013-10-7,80,72,68,79,72,68,100,99,85,17.72,17.72,6,1,8,0.00
2013-10-8,68,62,56,68,61,56,100,94,74,17.72,17.72,7,2,8,0.00
2013-10-9,80,64,51,58,53,44,100,73,32,17.72,17.72,7,1,8,0.00
2013-10-10,82,62,44,65,52,44,100,76,32,17.72,17.72,6,0,9,0.00
2013-10-11,84,64,48,71,55,48,100,80,37,17.72,17.72,0,0,0,0.00
2013-10-12,87,66,52,72,58,52,100,81,34,17.72,17.72,0,0,0,0.00
2013-10-13,77,65,59,73,64,59,100,98,71,17.72,17.72,0,0,0,0.00
2013-10-15,76,68,58,66,60,55,100,79,51,17.72,17.72,0,0,8,0.00
2013-10-16,82,66,54,72,59,53,100,84,37,17.72,17.72,0,0,0,0.00
2013-10-17,77,67,57,74,65,57,100,94,69,17.72,17.72,8,1,8,0.00
2013-10-18,76,68,62,72,66,62,100,94,71,17.72,17.72,8,1,8,0.00
2013-10-19,69,61,55,66,59,54,100,93,62,17.72,17.72,8,1,8,0.00
2013-10-20,75,59,44,66,50,43,100,78,34,17.72,17.72,5,1,6,0.00
2013-10-21,74,58,43,66,54,43,100,89,53,17.72,17.72,6,1,6,0.00
2013-10-22,68,60,55,68,60,55,100,100,100,17.72,17.72,4,0,4,0.00
2013-10-23,70,58,44,60,46,31,100,70,34,17.72,17.72,10,3,10,0.00
2013-10-24,67,49,31,52,40,31,100,77,34,17.72,17.72,8,1,8,0.00
2013-10-25,64,47,32,46,38,30,100,78,34,17.72,17.72,6,1,6,0.00
2013-10-26,65,43,26,48,34,26,100,78,34,17.72,17.72,10,1,10,0.00
2013-10-27,75,56,36,62,48,36,100,80,41,17.72,17.72,14,1,14,0.00
2013-10-28,70,59,54,67,57,52,100,94,55,17.72,17.72,4,0,4,0.00
2013-10-29,77,60,48,68,54,48,100,86,48,17.72,17.72,0,0,2,0.00
2013-10-30,81,65,52,65,56,51,100,79,39,17.72,17.72,0,0,0,0.00
2013-10-31,77,65,53,70,61,53,100,88,55,17.72,17.72,13,3,15,0.00
2013-11-1,69,65,62,69,65,62,100,100,100,17.72,17.72,9,3,10,0.00
2013-11-2,72,55,46,62,51,41,100,91,37,17.72,17.72,9,1,10,0.00
2013-11-3,70,50,35,57,42,35,100,81,39,17.72,17.72,6,0,6,0.00
2013-11-4,67,48,34,56,39,34,100,78,34,17.72,17.72,6,1,7,0.00
2013-11-5,70,50,36,54,44,36,100,83,39,17.72,17.72,8,1,8,0.00
2013-11-6,77,58,47,64,54,47,100,89,48,17.72,17.72,5,1,6,0.00
2013-11-7,77,59,42,71,52,35,100,81,39,29.71,17.72,6,1,10,0.00
2013-11-8,66,45,31,49,36,31,100,80,34,29.88,29.68,6,0,6,0.00
2013-11-9,63,47,30,52,39,30,100,80,34,29.91,29.80,0,0,0,0.00
2013-11-10,76,56,44,52,46,40,100,76,34,29.83,29.71,3,0,4,0.00
2013-11-11,68,50,36,50,40,36,100,77,34,29.83,29.68,5,1,6,0.00
2013-11-12,74,49,33,52,36,19,100,67,37,29.88,29.59,10,2,10,0.00
2013-11-13,55,36,22,31,24,14,100,65,39,30.00,29.88,6,1,7,0.00
2013-11-14,62,38,18,38,27,18,100,72,37,29.94,29.80,6,1,6,0.00
2013-11-15,60,48,30,57,46,30,100,96,83,29.80,29.68,3,0,3,0.00
2013-11-16,73,58,52,67,57,52,100,96,67,29.77,29.71,4,0,5,0.00
2013-11-17,68,64,58,68,64,58,100,100,100,29.74,29.53,8,2,8,0.00
2013-11-18,83,67,46,73,54,30,100,68,30,29.56,29.47,11,2,11,0.00
2013-11-19,66,47,32,49,36,29,100,72,34,29.71,29.53,10,1,10,0.00
2013-11-20,59,48,34,43,36,32,100,67,39,29.85,29.68,6,1,6,0.00
2013-11-21,56,50,47,56,49,41,100,95,69,29.91,29.83,5,1,6,0.00
2013-11-22,65,56,50,65,56,50,100,100,100,29.88,29.71,3,0,3,0.00
2013-11-23,70,59,43,67,56,32,100,91,60,29.71,29.62,6,1,6,0.00
2013-11-24,53,37,24,35,28,18,100,74,41,29.94,29.71,5,1,9,0.00
2013-11-25,53,39,21,30,25,19,100,63,41,29.94,29.71,5,1,5,0.00
2013-11-26,44,40,36,44,38,29,100,93,58,29.71,29.15,6,0,8,0.00
2013-11-27,48,40,24,47,35,23,100,84,44,29.71,29.09,10,2,17,0.00
2013-11-28,53,32,18,36,26,18,100,82,41,29.94,29.68,4,0,4,0.00
2013-11-29,62,39,22,40,30,22,100,77,37,30.00,29.88,5,0,5,0.00
2013-11-30,54,40,27,40,32,27,100,76,41,30.03,29.83,10,1,10,0.00
2013-12-1,55,44,36,53,42,36,100,93,69,29.83,29.53,6,0,6,0.00
2013-12-2,62,49,39,56,47,39,100,94,58,29.53,29.38,9,1,9,0.00
2013-12-3,59,54,48,59,54,48,100,100,100,29.50,29.38,6,1,6,0.00
2013-12-4,69,61,57,69,61,57,100,100,100,29.62,29.47,6,1,8,0.00
2013-12-5,71,65,60,71,65,60,100,100,100,29.68,29.62,8,3,8,0.00
2013-12-6,78,68,59,74,66,59,100,95,58,29.68,29.59,15,5,15,0.00
2013-12-7,67,58,47,67,58,47,100,100,100,29.94,29.62,8,1,8,0.00
2013-12-8,47,44,40,47,44,40,100,100,100,29.94,29.80,5,1,5,0.00
2013-12-9,50,44,40,50,44,40,100,100,100,29.80,29.62,4,0,4,0.00
2013-12-10,58,50,30,58,48,30,100,94,46,29.83,29.50,14,2,14,0.00
2013-12-11,60,39,25,46,34,25,100,85,44,29.91,29.80,5,0,8,0.00
2013-12-12,35,34,33,35,34,33,100,100,100,29.80,29.80,0,0,0,0.00
2013-12-13,59,42,22,43,34,22,100,78,39,29.83,29.71,8,1,8,0.00
2013-12-14,58,48,41,58,48,41,100,100,100,29.74,29.35,10,1,15,0.00
2013-12-15,54,46,29,52,43,29,100,91,60,29.62,29.32,13,2,14,0.00
2013-12-16,61,42,26,42,33,26,100,78,37,29.74,29.62,9,1,9,0.00
2013-12-17,64,49,36,42,36,29,100,67,34,29.71,29.62,10,3,13,0.00
2013-12-18,61,44,28,42,32,28,100,69,37,29.83,29.62,8,1,8,0.00
2013-12-19,64,40,25,44,32,25,100,80,34,29.83,29.74,7,1,7,0.00
2013-12-20,64,47,33,64,47,33,100,100,100,29.74,29.68,6,0,6,0.00
2013-12-21,77,64,52,72,62,52,100,96,62,29.68,29.59,12,3,13,0.00
2013-12-22,74,67,63,74,67,63,100,100,100,29.65,29.56,13,4,15,0.00
2013-12-23,66,55,40,66,55,40,100,100,100,29.71,29.59,8,2,8,0.00
2013-12-24,54,40,26,41,32,22,100,79,41,29.85,29.68,8,1,9,0.00
2013-12-25,51,36,24,32,27,22,100,72,41,29.94,29.83,5,1,5,0.00
2013-12-26,61,42,32,41,34,28,100,76,37,29.85,29.77,3,0,4,0.00
2013-12-27,57,38,27,44,32,27,100,85,39,29.91,29.80,4,0,230,0.00
2013-12-28,48,38,26,45,37,26,100,96,64,29.88,29.56,4,0,7,0.00
2013-12-29,55,46,41,55,46,41,100,100,100,29.56,29.32,9,1,14,0.00
2013-12-30,56,48,40,54,46,40,100,95,67,29.68,29.50,6,1,9,0.00
2013-12-31,55,44,32,48,38,28,100,84,39,29.85,29.68,7,1,8,0.00
2014-1-1,48,40,32,48,40,32,100,100,100,29.85,29.65,2,0,2,0.00
2014-1-2,52,46,38,52,46,37,100,100,94,29.68,29.23,9,2,9,0.00